createdAt,value
2022-09-11T00:02:21.183Z,14.064628
2022-09-11T00:07:23.025Z,14.636246
2022-09-11T00:12:25.101Z,14.363946
2022-09-11T00:17:27.295Z,14.167988
2022-09-11T00:22:29.480Z,14.343294
2022-09-11T00:27:31.568Z,13.37976
2022-09-11T00:32:33.338Z,12.148652
2022-09-11T00:37:34.806Z,13.547834
2022-09-11T00:42:36.389Z,13.378878
2022-09-11T00:47:38.084Z,13.265384
2022-09-11T00:52:39.731Z,13.428408
2022-09-11T00:57:41.692Z,13.730276
2022-09-11T01:02:43.314Z,12.829516
2022-09-11T01:07:44.959Z,12.73286
2022-09-11T01:12:46.719Z,12.2874
2022-09-11T01:17:48.159Z,11.96804
2022-09-11T01:22:49.831Z,12.746986
2022-09-11T01:27:51.791Z,12.03346
2022-09-11T01:32:53.625Z,11.649062
2022-09-11T01:37:55.351Z,11.703016
2022-09-11T01:42:57.357Z,11.914916
2022-09-11T01:47:59.097Z,11.685862
2022-09-11T01:53:01.048Z,11.6532
2022-09-11T01:58:03.231Z,11.703626
2022-09-11T02:03:05.185Z,11.996292
2022-09-11T02:08:07.354Z,12.029484
2022-09-11T02:13:09.135Z,11.429004
2022-09-11T02:18:11.294Z,11.67924
2022-09-11T02:23:13.138Z,11.559476
2022-09-11T02:28:16.154Z,11.637596
2022-09-11T02:33:18.225Z,11.281546
2022-09-11T02:38:20.192Z,11.169624
2022-09-11T02:43:22.541Z,11.801598
2022-09-11T02:48:24.510Z,11.126202
2022-09-11T02:53:26.618Z,10.883918
2022-09-11T02:58:29.279Z,11.358512
2022-09-11T03:03:31.000Z,11.101382
2022-09-11T03:08:32.751Z,11.086822
2022-09-11T03:13:34.847Z,10.903784
2022-09-11T03:18:36.391Z,10.44497
2022-09-11T03:23:38.035Z,10.958224
2022-09-11T03:28:40.249Z,10.983654
2022-09-11T03:33:41.917Z,10.247424
2022-09-11T03:38:44.107Z,11.010738
2022-09-11T03:43:46.357Z,10.747992
2022-09-11T03:48:48.448Z,10.6087
2022-09-11T03:53:50.667Z,11.001308
2022-09-11T03:58:53.021Z,10.605878
2022-09-11T04:03:54.670Z,10.706944
2022-09-11T04:08:56.431Z,11.024254
2022-09-11T04:13:58.424Z,10.60368
2022-09-11T04:19:00.271Z,10.737122
2022-09-11T04:24:02.026Z,10.549836
2022-09-11T04:29:04.407Z,10.758142
2022-09-11T04:34:06.192Z,10.801388
2022-09-11T04:39:08.067Z,10.547352
2022-09-11T04:44:10.295Z,10.677104
2022-09-11T04:49:12.189Z,10.92468
2022-09-11T04:54:13.841Z,10.722724
2022-09-11T04:59:16.105Z,11.2223
2022-09-11T05:04:21.812Z,11.57713
2022-09-11T05:09:25.843Z,11.887546
2022-09-11T05:14:27.883Z,12.422878
2022-09-11T05:19:29.457Z,12.44159
2022-09-11T05:24:31.176Z,13.195378
2022-09-11T05:29:33.492Z,13.078326
2022-09-11T05:34:35.509Z,13.365024
2022-09-11T05:39:37.205Z,14.543228
2022-09-11T05:44:38.916Z,14.890458
2022-09-11T05:49:40.525Z,14.920474
2022-09-11T05:54:42.510Z,14.538722
2022-09-11T05:59:44.180Z,15.813404
2022-09-11T06:04:45.638Z,17.216266
2022-09-11T06:09:47.185Z,16.507378
2022-09-11T06:14:48.665Z,17.866302
2022-09-11T06:19:50.474Z,18.269182
2022-09-11T06:24:52.171Z,18.911104
2022-09-11T06:29:53.890Z,19.22642
2022-09-11T06:34:55.558Z,19.161096
2022-09-11T06:39:57.093Z,20.070312
2022-09-11T06:44:59.083Z,19.80101
2022-09-11T06:50:00.947Z,20.76981
2022-09-11T06:55:02.712Z,21.032816
2022-09-11T07:00:05.058Z,21.177576
2022-09-11T07:05:06.813Z,22.217454
2022-09-11T07:10:08.719Z,22.60165
2022-09-11T07:15:10.718Z,22.36174
2022-09-11T07:20:12.362Z,23.581524
2022-09-11T07:25:14.379Z,23.9845
2022-09-11T07:30:16.552Z,23.698236
2022-09-11T07:35:18.313Z,24.49887
2022-09-11T07:40:20.086Z,25.486248
2022-09-11T07:45:22.785Z,25.678896
2022-09-11T07:50:25.035Z,26.148784
2022-09-11T07:55:26.843Z,26.7102
2022-09-11T08:00:30.549Z,26.176548
2022-09-11T08:05:34.648Z,27.021352
2022-09-11T08:10:36.324Z,26.697608
2022-09-11T08:15:38.347Z,28.596486
2022-09-11T08:20:39.868Z,28.196372
2022-09-11T08:25:41.328Z,28.541312
2022-09-11T08:30:44.014Z,28.29106
2022-09-11T08:35:45.688Z,28.242304
2022-09-11T08:40:47.170Z,28.439146
2022-09-11T08:45:48.917Z,28.648336
2022-09-11T08:50:50.696Z,29.238288
2022-09-11T08:55:52.362Z,29.568708
2022-09-11T09:00:54.615Z,28.899522
2022-09-11T09:05:56.650Z,28.573092
2022-09-11T09:10:58.303Z,29.287966
2022-09-11T09:16:00.048Z,28.972568
2022-09-11T09:21:01.873Z,29.617464
2022-09-11T09:26:03.914Z,29.140928
2022-09-11T09:31:06.047Z,29.961536
2022-09-11T09:36:07.970Z,29.506234
2022-09-11T09:41:09.814Z,29.707512
2022-09-11T09:46:12.103Z,29.932632
2022-09-11T09:51:14.268Z,29.782552
2022-09-11T09:56:16.284Z,30.222616
2022-09-11T10:01:18.459Z,29.731124
2022-09-11T10:06:20.470Z,30.190172
2022-09-11T10:11:22.740Z,30.551246
2022-09-11T10:16:24.854Z,30.045396
2022-09-11T10:21:26.609Z,31.372928
2022-09-11T10:26:28.381Z,30.20275
2022-09-11T10:31:31.674Z,30.562278
2022-09-11T10:36:33.435Z,29.819394
2022-09-11T10:41:35.298Z,30.223064
2022-09-11T10:46:38.341Z,29.708368
2022-09-11T10:51:43.077Z,29.852044
2022-09-11T10:56:46.926Z,30.092606
2022-09-11T11:01:49.447Z,30.292364
2022-09-11T11:06:50.981Z,30.368938
2022-09-11T11:11:52.418Z,28.57221
2022-09-11T11:16:54.204Z,29.274044
2022-09-11T11:21:55.958Z,28.9143
2022-09-11T11:26:57.398Z,28.894434
2022-09-11T11:31:59.482Z,30.088874
2022-09-11T11:37:01.539Z,29.731558
2022-09-11T11:42:03.180Z,29.572184
2022-09-11T11:47:04.954Z,29.442878
2022-09-11T11:52:06.390Z,29.816748
2022-09-11T11:57:07.991Z,30.429852
2022-09-11T12:02:10.182Z,30.263434
2022-09-11T12:07:11.914Z,30.292568
2022-09-11T12:12:13.686Z,30.112472
2022-09-11T12:17:15.561Z,30.437804
2022-09-11T12:22:17.098Z,29.68036
2022-09-11T12:27:18.812Z,29.718314
2022-09-11T12:32:21.021Z,30.342016
2022-09-11T12:37:22.444Z,29.528516
2022-09-11T12:42:24.226Z,30.080718
2022-09-11T12:47:26.442Z,29.466502
2022-09-11T12:52:28.225Z,30.171622
2022-09-11T12:57:29.822Z,30.110708
2022-09-11T13:02:31.705Z,29.442404
2022-09-11T13:07:33.611Z,30.26479
2022-09-11T13:12:35.303Z,29.713444
2022-09-11T13:17:37.088Z,29.55811
2022-09-11T13:22:38.654Z,29.73377
2022-09-11T13:27:40.338Z,29.480372
2022-09-11T13:32:42.358Z,29.20298
2022-09-11T13:37:43.920Z,28.900404
2022-09-11T13:42:45.365Z,28.640398
2022-09-11T13:47:47.302Z,28.93616
2022-09-11T13:52:48.751Z,29.192804
2022-09-11T13:57:50.531Z,29.066566
2022-09-11T14:02:53.077Z,28.845652
2022-09-11T14:07:55.100Z,28.97368
2022-09-11T14:12:57.209Z,28.743676
2022-09-11T14:17:59.353Z,28.804386
2022-09-11T14:23:01.114Z,28.566036
2022-09-11T14:28:03.159Z,28.691596
2022-09-11T14:33:05.947Z,27.87655
2022-09-11T14:38:07.889Z,28.109404
2022-09-11T14:43:09.661Z,27.951156
2022-09-11T14:48:11.623Z,28.050268
2022-09-11T14:53:13.413Z,27.677714
2022-09-11T14:58:15.522Z,27.245386
2022-09-11T15:03:17.667Z,27.198394
2022-09-11T15:08:19.225Z,26.772444
2022-09-11T15:13:21.110Z,26.941902
2022-09-11T15:18:23.288Z,26.597166
2022-09-11T15:23:25.367Z,26.538898
2022-09-11T15:28:27.016Z,26.407408
2022-09-11T15:33:29.672Z,25.867094
2022-09-11T15:38:31.811Z,26.04723
2022-09-11T15:43:34.113Z,26.086514
2022-09-11T15:48:36.045Z,25.922756
2022-09-11T15:53:38.039Z,25.266638
2022-09-11T15:58:39.517Z,25.197338
2022-09-11T16:03:41.357Z,25.005138
2022-09-11T16:08:43.079Z,24.42094
2022-09-11T16:13:44.697Z,24.517352
2022-09-11T16:18:46.771Z,23.969588
2022-09-11T16:23:53.575Z,23.923342
2022-09-11T16:28:56.366Z,23.572202
2022-09-11T16:33:58.509Z,23.537966
2022-09-11T16:39:00.158Z,23.147338
2022-09-11T16:44:02.064Z,23.095068
2022-09-11T16:49:04.100Z,23.061076
2022-09-11T16:54:05.752Z,22.844546
2022-09-11T16:59:07.405Z,22.804434
2022-09-11T17:04:09.746Z,22.711944
2022-09-11T17:09:11.505Z,22.495468
2022-09-11T17:14:13.297Z,21.869842
2022-09-11T17:19:15.710Z,22.128492
2022-09-11T17:24:17.790Z,22.0493
2022-09-11T17:29:19.691Z,21.955724
2022-09-11T17:34:21.896Z,21.974016
2022-09-11T17:39:23.692Z,21.935424
2022-09-11T17:44:25.728Z,22.109318
2022-09-11T17:49:27.738Z,21.434896
2022-09-11T17:54:29.479Z,21.33824
2022-09-11T17:59:31.699Z,21.27909
2022-09-11T18:04:33.772Z,21.230552
2022-09-11T18:09:35.836Z,20.998634
2022-09-11T18:14:38.000Z,20.569876
2022-09-11T18:19:39.686Z,20.111292
2022-09-11T18:24:41.277Z,20.003848
2022-09-11T18:29:42.700Z,20.254302
2022-09-11T18:34:44.520Z,20.229144
2022-09-11T18:39:46.474Z,19.318408
2022-09-11T18:44:48.026Z,19.722958
2022-09-11T18:49:49.802Z,19.503606
2022-09-11T18:54:51.262Z,19.213814
2022-09-11T18:59:52.832Z,18.942884
2022-09-11T19:04:54.994Z,18.934064
2022-09-11T19:09:56.450Z,18.735188
2022-09-11T19:14:57.884Z,18.892134
2022-09-11T19:20:00.496Z,18.70543
2022-09-11T19:25:02.164Z,18.68954
2022-09-11T19:30:03.608Z,18.940048
2022-09-11T19:35:05.475Z,18.70657
2022-09-11T19:40:07.094Z,18.487218
2022-09-11T19:45:08.581Z,17.78502
2022-09-11T19:50:10.417Z,17.251682
2022-09-11T19:55:12.176Z,17.047148
2022-09-11T20:00:14.028Z,17.136748
2022-09-11T20:05:16.590Z,17.544554
2022-09-11T20:10:18.213Z,17.264654
2022-09-11T20:15:19.967Z,17.121482
2022-09-11T20:20:21.687Z,16.838312
2022-09-11T20:25:23.207Z,16.387518
2022-09-11T20:30:24.818Z,16.66891
2022-09-11T20:35:26.591Z,16.87476
2022-09-11T20:40:28.164Z,17.121306
2022-09-11T20:45:29.631Z,16.894626
2022-09-11T20:50:31.543Z,17.014676
2022-09-11T20:55:32.953Z,16.661854
2022-09-11T21:00:34.693Z,16.848978
2022-09-11T21:05:36.471Z,16.367394
2022-09-11T21:10:38.089Z,16.227736
2022-09-11T21:15:39.857Z,16.178316
2022-09-11T21:20:41.713Z,16.38821
2022-09-11T21:25:43.273Z,15.829904
2022-09-11T21:30:44.751Z,16.405688
2022-09-11T21:35:46.818Z,15.670584
2022-09-11T21:40:48.376Z,15.903262
2022-09-11T21:45:49.948Z,15.701482
2022-09-11T21:50:51.939Z,15.619834
2022-09-11T21:55:53.820Z,15.650108
2022-09-11T22:00:55.259Z,16.121284
2022-09-11T22:05:57.741Z,15.863014
2022-09-11T22:10:59.518Z,16.241334
2022-09-11T22:16:01.325Z,16.062934
2022-09-11T22:21:03.488Z,15.78427
2022-09-11T22:26:05.513Z,15.26746
2022-09-11T22:31:07.055Z,15.84456
2022-09-11T22:36:08.949Z,15.713654
2022-09-11T22:41:11.007Z,15.383086
2022-09-11T22:46:12.456Z,16.376474
2022-09-11T22:51:14.267Z,15.717888
2022-09-11T22:56:15.934Z,15.098426
2022-09-11T23:01:21.883Z,14.81588
2022-09-11T23:06:24.884Z,14.682586
2022-09-11T23:11:26.588Z,14.614454
2022-09-11T23:16:28.546Z,14.683916
2022-09-11T23:21:30.557Z,14.416202
2022-09-11T23:26:32.808Z,14.916946
2022-09-11T23:31:34.708Z,14.376822
2022-09-11T23:36:37.100Z,14.599174
2022-09-11T23:41:38.863Z,14.805906
2022-09-11T23:46:41.047Z,14.456626
2022-09-11T23:51:43.163Z,14.598292
2022-09-11T23:56:44.820Z,14.26155
